Time;durP1;ratioP1;P1;durP2;ratioP2;P2;SDS_P1;SDS_P2;PMS_P1;PMS_P2;Temp;Humidity;BMP_temperature;BMP_pressure;BME280_temperature;BME280_humidity;BME280_pressure;Samples;Min_cycle;Max_cycle;Signal;HPM_P1;HPM_P2
2022/06/28 00:00:56;;;;;;;;;;;17.00;99.90;;;;;;5123905;27;20320;-53
2022/06/28 00:03:36;;;;;;;;;;;17.00;99.90;;;;;;5124652;27;20400;-53
2022/06/28 00:06:16;;;;;;;;;;;17.00;99.90;;;;;;5102635;27;19927;-53
2022/06/28 00:08:55;;;;;;;;;;;17.00;99.90;;;;;;5124558;27;19912;-53
2022/06/28 00:11:35;;;;;;;;;;;17.00;99.90;;;;;;5122716;27;19915;-52
2022/06/28 00:17:13;;;;;;;;;;;16.90;99.90;;;;;;5109970;27;19912;-53
2022/06/28 00:19:52;;;;;;;;;;;16.90;99.90;;;;;;5103359;27;19930;-53
2022/06/28 00:22:32;;;;;;;;;;;16.90;99.90;;;;;;5100608;27;19930;-53
2022/06/28 00:25:12;;;;;;;;;;;16.80;99.90;;;;;;5103553;27;19969;-53
2022/06/28 00:27:52;;;;;;;;;;;16.80;99.90;;;;;;5104005;27;19920;-53
2022/06/28 00:30:33;;;;;;;;;;;16.80;99.90;;;;;;5083230;28;19912;-53
2022/06/28 00:33:13;;;;;;;;;;;16.70;99.90;;;;;;5103958;27;19915;-53
2022/06/28 00:35:53;;;;;;;;;;;16.70;99.90;;;;;;5122170;27;19912;-53
2022/06/28 00:38:33;;;;;;;;;;;16.70;99.90;;;;;;5087257;27;20542;-53
2022/06/28 00:41:13;;;;;;;;;;;16.60;99.90;;;;;;5124056;27;19911;-53
2022/06/28 00:43:53;;;;;;;;;;;16.60;99.90;;;;;;5123951;27;19918;-53
2022/06/28 00:46:34;;;;;;;;;;;16.60;99.90;;;;;;5116784;27;19918;-53
2022/06/28 00:49:14;;;;;;;;;;;16.70;99.90;;;;;;5124414;27;20369;-53
2022/06/28 00:51:56;;;;;;;;;;;16.70;99.90;;;;;;5124376;27;19912;-53
2022/06/28 00:54:37;;;;;;;;;;;16.70;99.90;;;;;;5124742;27;20409;-54
2022/06/28 00:57:16;;;;;;;;;;;16.70;99.90;;;;;;5110586;27;19916;-53
2022/06/28 00:59:56;;;;;;;;;;;16.70;99.90;;;;;;5123925;27;19922;-53
2022/06/28 01:02:36;;;;;;;;;;;16.70;99.90;;;;;;5104639;27;19912;-53
2022/06/28 01:05:16;;;;;;;;;;;16.70;99.90;;;;;;5103854;27;20431;-53
2022/06/28 01:07:57;;;;;;;;;;;16.70;99.90;;;;;;5104655;27;19912;-53
2022/06/28 01:10:38;;;;;;;;;;;16.80;99.90;;;;;;5124439;27;19915;-52
2022/06/28 01:13:19;;;;;;;;;;;16.80;99.90;;;;;;5124670;27;20395;-53
2022/06/28 01:16:02;;;;;;;;;;;16.70;99.90;;;;;;5120496;27;20278;-53
2022/06/28 01:18:41;;;;;;;;;;;16.70;99.90;;;;;;5124301;27;20096;-53
2022/06/28 01:21:42;;;;;;;;;;;16.70;99.90;;;;;;5120957;27;19923;-53
2022/06/28 01:24:23;;;;;;;;;;;16.70;99.90;;;;;;5118537;27;19919;-53
2022/06/28 01:27:18;;;;;;;;;;;16.70;99.90;;;;;;5122217;27;19911;-54
2022/06/28 01:29:58;;;;;;;;;;;16.70;99.90;;;;;;5123575;27;19918;-53
2022/06/28 01:32:53;;;;;;;;;;;16.70;99.90;;;;;;5101689;27;19957;-53
2022/06/28 01:35:33;;;;;;;;;;;16.70;99.90;;;;;;5107704;27;19916;-52
2022/06/28 01:38:13;;;;;;;;;;;16.70;99.90;;;;;;5122916;27;19922;-53
2022/06/28 01:40:53;;;;;;;;;;;16.70;99.90;;;;;;5144367;27;19965;-53
2022/06/28 01:43:36;;;;;;;;;;;16.70;99.90;;;;;;5104342;27;19950;-52
2022/06/28 01:46:16;;;;;;;;;;;16.60;99.90;;;;;;5118702;27;20385;-53
2022/06/28 01:49:06;;;;;;;;;;;16.60;99.90;;;;;;5124673;27;19916;-53
2022/06/28 01:51:47;;;;;;;;;;;16.60;99.90;;;;;;5124544;27;20270;-54
2022/06/28 01:54:37;;;;;;;;;;;16.50;99.90;;;;;;5104506;27;20017;-55
2022/06/28 01:57:18;;;;;;;;;;;16.40;99.90;;;;;;5106369;27;20358;-54
2022/06/28 02:00:08;;;;;;;;;;;16.30;99.90;;;;;;5103269;27;19912;-55
2022/06/28 02:02:55;;;;;;;;;;;16.20;99.90;;;;;;5103805;27;19957;-55
2022/06/28 02:05:54;;;;;;;;;;;16.10;99.90;;;;;;5121793;27;19912;-54
2022/06/28 02:08:36;;;;;;;;;;;16.10;99.90;;;;;;5124090;27;19915;-55
2022/06/28 02:11:18;;;;;;;;;;;16.00;99.90;;;;;;5103317;27;19949;-54
2022/06/28 02:14:04;;;;;;;;;;;15.90;99.90;;;;;;5124870;27;19912;-55
2022/06/28 02:16:45;;;;;;;;;;;15.80;99.90;;;;;;5093913;27;19919;-55
2022/06/28 02:19:26;;;;;;;;;;;15.70;99.90;;;;;;5124019;27;20273;-54
2022/06/28 02:22:07;;;;;;;;;;;15.70;99.90;;;;;;5121289;27;19916;-55
2022/06/28 02:24:51;;;;;;;;;;;15.60;99.90;;;;;;5102756;27;19912;-55
2022/06/28 02:27:32;;;;;;;;;;;15.50;99.90;;;;;;5087022;27;19927;-54
2022/06/28 02:30:13;;;;;;;;;;;15.50;99.90;;;;;;5124367;27;19915;-55
2022/06/28 02:32:53;;;;;;;;;;;15.50;99.90;;;;;;5124396;27;19942;-56
2022/06/28 02:41:27;;;;;;;;;;;15.40;99.90;;;;;;5103686;27;19954;-55
2022/06/28 02:44:07;;;;;;;;;;;15.40;99.90;;;;;;5124634;27;19916;-56
2022/06/28 02:46:47;;;;;;;;;;;15.40;99.90;;;;;;5093491;27;20397;-56
2022/06/28 02:49:27;;;;;;;;;;;15.40;99.90;;;;;;5103871;27;20393;-55
2022/06/28 02:52:07;;;;;;;;;;;15.40;99.90;;;;;;5124422;27;19911;-54
2022/06/28 02:54:47;;;;;;;;;;;15.30;99.90;;;;;;5103756;27;19953;-55
2022/06/28 02:57:26;;;;;;;;;;;15.20;99.90;;;;;;5124984;27;19915;-54
2022/06/28 03:00:08;;;;;;;;;;;15.10;99.90;;;;;;5103531;27;19953;-54
2022/06/28 03:02:50;;;;;;;;;;;15.10;99.90;;;;;;5124764;27;20044;-55
2022/06/28 03:05:31;;;;;;;;;;;15.00;99.90;;;;;;5124635;27;19918;-54
2022/06/28 03:08:11;;;;;;;;;;;15.00;99.90;;;;;;5123534;27;19911;-54
2022/06/28 03:10:52;;;;;;;;;;;15.00;99.90;;;;;;5103012;27;19926;-54
2022/06/28 03:13:32;;;;;;;;;;;14.90;99.90;;;;;;5124317;27;19911;-55
2022/06/28 03:16:12;;;;;;;;;;;14.80;99.90;;;;;;5119212;27;19916;-55
2022/06/28 03:18:52;;;;;;;;;;;14.80;99.90;;;;;;5103358;27;19913;-55
2022/06/28 03:21:31;;;;;;;;;;;14.80;99.90;;;;;;5081408;27;19923;-54
2022/06/28 03:24:11;;;;;;;;;;;14.90;99.90;;;;;;5103181;27;19916;-53
2022/06/28 03:26:51;;;;;;;;;;;14.90;99.90;;;;;;5111856;27;20267;-53
2022/06/28 03:29:32;;;;;;;;;;;14.90;99.90;;;;;;5124109;27;19912;-55
2022/06/28 03:32:14;;;;;;;;;;;14.80;99.90;;;;;;5124306;27;19911;-55
2022/06/28 03:34:54;;;;;;;;;;;14.80;99.90;;;;;;5083083;28;19913;-53
2022/06/28 03:37:37;;;;;;;;;;;14.80;99.90;;;;;;5107049;27;19912;-56
2022/06/28 03:40:18;;;;;;;;;;;14.90;99.90;;;;;;5100975;27;19916;-55
2022/06/28 03:43:01;;;;;;;;;;;14.90;99.90;;;;;;5101206;27;19950;-54
2022/06/28 03:45:41;;;;;;;;;;;14.90;99.90;;;;;;5099584;27;19919;-55
2022/06/28 03:48:40;;;;;;;;;;;14.90;99.90;;;;;;5106839;27;19926;-54
2022/06/28 03:51:49;;;;;;;;;;;15.00;99.90;;;;;;5122339;27;19938;-54
2022/06/28 03:54:36;;;;;;;;;;;14.90;99.90;;;;;;5124026;27;19953;-56
2022/06/28 03:57:42;;;;;;;;;;;15.00;99.90;;;;;;5081457;27;19939;-55
2022/06/28 04:00:25;;;;;;;;;;;15.00;99.90;;;;;;5123808;27;19918;-55
2022/06/28 04:03:05;;;;;;;;;;;15.00;99.90;;;;;;5123768;27;19916;-54
2022/06/28 04:05:54;;;;;;;;;;;14.90;99.90;;;;;;5121063;27;20381;-54
2022/06/28 04:08:34;;;;;;;;;;;15.00;99.90;;;;;;5124193;27;19911;-55
2022/06/28 04:11:17;;;;;;;;;;;15.00;99.90;;;;;;5124226;27;19922;-54
2022/06/28 04:13:58;;;;;;;;;;;15.00;99.90;;;;;;5123379;27;20000;-54
2022/06/28 04:16:38;;;;;;;;;;;15.00;99.90;;;;;;5113102;27;19942;-55
2022/06/28 04:19:18;;;;;;;;;;;15.10;99.90;;;;;;5124512;27;20432;-54
2022/06/28 04:22:01;;;;;;;;;;;15.10;99.90;;;;;;5124312;27;20254;-54
2022/06/28 04:24:43;;;;;;;;;;;15.20;99.90;;;;;;5124130;27;19912;-56
2022/06/28 04:27:29;;;;;;;;;;;15.30;99.90;;;;;;5068427;28;19913;-55
2022/06/28 04:30:10;;;;;;;;;;;15.50;99.90;;;;;;5124008;27;19912;-54
2022/06/28 04:33:03;;;;;;;;;;;15.80;99.90;;;;;;5083739;27;19927;-55
2022/06/28 04:35:48;;;;;;;;;;;16.40;99.90;;;;;;5121327;27;19916;-54
2022/06/28 04:38:27;;;;;;;;;;;16.60;99.90;;;;;;5102247;27;20191;-54
2022/06/28 04:41:24;;;;;;;;;;;16.60;99.90;;;;;;5122432;27;19911;-54
2022/06/28 04:44:09;;;;;;;;;;;16.70;99.90;;;;;;5123164;27;20284;-55
2022/06/28 04:46:54;;;;;;;;;;;17.60;99.90;;;;;;5091968;27;19917;-55
2022/06/28 04:49:37;;;;;;;;;;;19.00;99.90;;;;;;5121922;27;19919;-53
2022/06/28 04:52:17;;;;;;;;;;;20.30;99.90;;;;;;5123565;27;19911;-55
2022/06/28 04:55:03;;;;;;;;;;;21.40;99.90;;;;;;5126130;27;20392;-54
2022/06/28 04:58:10;;;;;;;;;;;22.20;99.90;;;;;;5102040;27;19912;-54
2022/06/28 05:00:52;;;;;;;;;;;22.80;99.90;;;;;;5122676;27;19916;-54
2022/06/28 05:03:35;;;;;;;;;;;23.00;99.90;;;;;;5082302;28;20269;-53
2022/06/28 05:06:14;;;;;;;;;;;23.10;99.90;;;;;;5122284;27;20283;-54
2022/06/28 05:08:59;;;;;;;;;;;22.70;99.90;;;;;;5122950;27;19912;-54
2022/06/28 05:11:40;;;;;;;;;;;22.00;99.90;;;;;;5123797;27;20385;-54
2022/06/28 05:14:44;;;;;;;;;;;21.80;99.90;;;;;;5124242;27;20328;-54
2022/06/28 05:17:26;;;;;;;;;;;21.10;99.90;;;;;;5109545;27;19923;-55
2022/06/28 05:20:07;;;;;;;;;;;20.80;99.90;;;;;;5103959;27;20140;-54
2022/06/28 05:22:47;;;;;;;;;;;20.50;99.90;;;;;;5103992;27;19912;-53
2022/06/28 05:25:53;;;;;;;;;;;20.60;99.90;;;;;;5122535;27;19912;-55
2022/06/28 05:28:32;;;;;;;;;;;20.70;99.90;;;;;;5124164;27;19926;-55
2022/06/28 05:31:12;;;;;;;;;;;20.80;99.90;;;;;;5124579;27;19912;-54
2022/06/28 05:33:52;;;;;;;;;;;20.60;99.90;;;;;;5104106;27;19915;-54
2022/06/28 05:36:32;;;;;;;;;;;20.60;99.90;;;;;;5076454;28;20094;-54
2022/06/28 05:39:12;;;;;;;;;;;21.10;99.90;;;;;;5104143;27;19912;-54
2022/06/28 05:41:53;;;;;;;;;;;21.80;99.90;;;;;;5124013;27;19953;-55
2022/06/28 05:44:33;;;;;;;;;;;21.90;99.90;;;;;;5104601;27;20355;-55
2022/06/28 05:47:13;;;;;;;;;;;21.80;99.90;;;;;;5111172;27;20625;-54
2022/06/28 05:49:52;;;;;;;;;;;21.70;99.90;;;;;;5104076;27;19916;-53
2022/06/28 05:52:32;;;;;;;;;;;21.50;99.90;;;;;;5125107;27;19912;-54
2022/06/28 05:55:12;;;;;;;;;;;21.30;99.90;;;;;;5125020;27;19912;-52
2022/06/28 05:57:52;;;;;;;;;;;21.30;99.90;;;;;;5123324;27;19911;-54
2022/06/28 06:00:33;;;;;;;;;;;21.40;99.90;;;;;;5123517;27;19919;-55
2022/06/28 06:03:13;;;;;;;;;;;21.50;99.90;;;;;;5124131;27;19912;-54
2022/06/28 06:05:53;;;;;;;;;;;21.70;99.90;;;;;;5123212;27;19918;-53
2022/06/28 06:08:35;;;;;;;;;;;21.90;99.90;;;;;;5124184;27;19919;-54
2022/06/28 06:11:16;;;;;;;;;;;22.20;99.90;;;;;;5123919;27;19920;-54
2022/06/28 06:13:56;;;;;;;;;;;22.30;99.90;;;;;;5124322;27;20351;-54
2022/06/28 06:16:36;;;;;;;;;;;22.40;99.90;;;;;;5116488;27;20097;-55
2022/06/28 06:19:15;;;;;;;;;;;22.80;99.90;;;;;;5104135;27;19918;-53
2022/06/28 06:21:55;;;;;;;;;;;22.80;99.90;;;;;;5124225;27;19912;-54
2022/06/28 06:24:35;;;;;;;;;;;22.50;99.90;;;;;;5124479;27;19922;-53
2022/06/28 06:27:28;;;;;;;;;;;22.10;99.90;;;;;;5109135;27;19912;-53
2022/06/28 06:30:08;;;;;;;;;;;22.10;99.90;;;;;;5103552;27;20377;-54
2022/06/28 06:33:00;;;;;;;;;;;22.00;99.90;;;;;;5104117;27;19930;-55
2022/06/28 06:35:53;;;;;;;;;;;22.00;99.90;;;;;;5123381;27;19911;-54
2022/06/28 06:38:33;;;;;;;;;;;21.90;99.90;;;;;;5124258;27;20487;-54
2022/06/28 06:41:12;;;;;;;;;;;21.90;99.90;;;;;;5124224;27;19918;-55
2022/06/28 06:43:55;;;;;;;;;;;22.30;99.90;;;;;;5124614;27;19912;-54
2022/06/28 06:46:36;;;;;;;;;;;22.50;99.90;;;;;;5095666;27;19999;-54
2022/06/28 06:49:17;;;;;;;;;;;22.60;99.90;;;;;;5125046;27;19926;-55
2022/06/28 06:51:58;;;;;;;;;;;22.20;99.90;;;;;;5103801;27;20426;-53
2022/06/28 06:54:40;;;;;;;;;;;22.20;99.90;;;;;;5124569;27;19912;-54
2022/06/28 06:57:19;;;;;;;;;;;22.20;99.90;;;;;;5110403;27;19912;-54
2022/06/28 06:59:59;;;;;;;;;;;22.20;99.90;;;;;;5124177;27;19916;-54
2022/06/28 07:02:41;;;;;;;;;;;22.10;99.90;;;;;;5124924;27;20361;-54
2022/06/28 07:05:20;;;;;;;;;;;21.80;99.90;;;;;;5124366;27;19915;-53
2022/06/28 07:08:00;;;;;;;;;;;21.50;99.90;;;;;;5104440;27;19912;-53
2022/06/28 07:10:47;;;;;;;;;;;21.30;99.90;;;;;;5124502;27;19918;-52
2022/06/28 07:13:28;;;;;;;;;;;21.20;99.90;;;;;;5103999;27;19916;-55
2022/06/28 07:16:10;;;;;;;;;;;21.10;99.90;;;;;;5099737;27;19946;-53
2022/06/28 07:18:49;;;;;;;;;;;20.90;99.90;;;;;;5103730;27;20328;-53
2022/06/28 07:21:31;;;;;;;;;;;21.10;99.90;;;;;;5124499;27;19912;-54
2022/06/28 07:24:13;;;;;;;;;;;21.20;99.90;;;;;;5124498;27;19916;-53
2022/06/28 07:26:54;;;;;;;;;;;21.00;99.90;;;;;;5114381;27;19916;-53
2022/06/28 07:29:33;;;;;;;;;;;21.00;99.90;;;;;;5125098;27;19915;-55
2022/06/28 07:32:13;;;;;;;;;;;21.10;99.90;;;;;;5124428;27;19912;-53
2022/06/28 07:34:53;;;;;;;;;;;21.30;99.90;;;;;;5104230;27;20479;-54
2022/06/28 07:37:33;;;;;;;;;;;21.60;99.90;;;;;;5088311;27;20321;-54
2022/06/28 07:40:14;;;;;;;;;;;21.90;99.90;;;;;;5124220;27;19916;-56
2022/06/28 07:43:29;;;;;;;;;;;22.20;99.90;;;;;;5125041;27;20292;-53
2022/06/28 07:46:17;;;;;;;;;;;22.20;99.90;;;;;;5123752;27;19912;-53
2022/06/28 07:48:57;;;;;;;;;;;22.60;99.90;;;;;;5144890;27;19912;-54
2022/06/28 07:54:37;;;;;;;;;;;22.40;99.90;;;;;;5103803;27;19954;-53
2022/06/28 07:57:22;;;;;;;;;;;22.50;99.90;;;;;;5109717;27;19912;-53
2022/06/28 08:00:02;;;;;;;;;;;22.50;99.90;;;;;;5104481;27;19916;-53
2022/06/28 08:02:52;;;;;;;;;;;22.50;99.90;;;;;;5103993;27;19936;-54
2022/06/28 08:05:33;;;;;;;;;;;22.70;99.90;;;;;;5124293;27;20377;-53
2022/06/28 08:08:13;;;;;;;;;;;23.10;99.90;;;;;;5144609;27;19911;-53
2022/06/28 08:10:54;;;;;;;;;;;23.50;99.90;;;;;;5124539;27;19912;-53
2022/06/28 08:13:35;;;;;;;;;;;23.80;99.90;;;;;;5124949;27;19912;-55
2022/06/28 08:16:15;;;;;;;;;;;24.60;99.90;;;;;;5119686;27;19916;-55
2022/06/28 08:18:55;;;;;;;;;;;25.00;99.90;;;;;;5124115;27;19915;-53
2022/06/28 08:21:45;;;;;;;;;;;25.60;99.90;;;;;;5103263;27;19912;-55
2022/06/28 08:24:26;;;;;;;;;;;26.00;99.90;;;;;;5103530;27;19916;-54
2022/06/28 08:27:06;;;;;;;;;;;25.90;99.90;;;;;;5112225;27;19931;-55
2022/06/28 08:29:47;;;;;;;;;;;25.30;99.90;;;;;;5103497;27;19930;-55
2022/06/28 08:32:27;;;;;;;;;;;24.60;99.90;;;;;;5103786;27;19957;-55
2022/06/28 08:35:19;;;;;;;;;;;24.30;99.90;;;;;;5083660;28;19912;-53
2022/06/28 08:38:00;;;;;;;;;;;24.50;99.90;;;;;;5084076;27;20250;-55
2022/06/28 08:40:40;;;;;;;;;;;24.70;99.90;;;;;;5083230;28;19927;-54
2022/06/28 08:43:20;;;;;;;;;;;24.60;99.90;;;;;;5124616;27;19919;-55
2022/06/28 08:46:00;;;;;;;;;;;24.70;99.90;;;;;;5101223;27;19961;-53
2022/06/28 08:48:41;;;;;;;;;;;25.10;99.90;;;;;;5103571;27;20484;-54
2022/06/28 08:51:21;;;;;;;;;;;25.60;99.90;;;;;;5104087;27;19946;-54
2022/06/28 08:54:03;;;;;;;;;;;26.10;99.90;;;;;;5124528;27;20413;-55
2022/06/28 08:56:44;;;;;;;;;;;26.60;99.90;;;;;;5095365;27;19912;-53
2022/06/28 08:59:25;;;;;;;;;;;26.70;98.60;;;;;;5083610;28;19913;-54
2022/06/28 09:02:06;;;;;;;;;;;26.60;98.50;;;;;;5124498;27;19918;-55
2022/06/28 09:04:49;;;;;;;;;;;26.80;98.90;;;;;;5117859;27;19975;-53
2022/06/28 09:07:29;;;;;;;;;;;26.20;99.30;;;;;;5067918;27;19967;-56
2022/06/28 09:10:09;;;;;;;;;;;25.70;98.80;;;;;;5103328;27;20428;-54
2022/06/28 09:12:54;;;;;;;;;;;25.60;99.90;;;;;;5102342;27;20416;-54
2022/06/28 09:15:47;;;;;;;;;;;25.90;99.90;;;;;;5119420;27;19928;-54
2022/06/28 09:18:42;;;;;;;;;;;26.50;98.70;;;;;;5102412;27;19953;-54
2022/06/28 09:21:22;;;;;;;;;;;26.70;92.50;;;;;;5123291;27;19919;-54
2022/06/28 09:24:02;;;;;;;;;;;26.60;93.40;;;;;;5083742;28;19917;-53
2022/06/28 09:26:42;;;;;;;;;;;26.60;89.80;;;;;;5123635;27;20316;-53
2022/06/28 09:29:22;;;;;;;;;;;26.60;91.10;;;;;;5083454;28;19912;-56
2022/06/28 09:32:05;;;;;;;;;;;26.40;91.80;;;;;;5124493;27;20364;-53
2022/06/28 09:34:53;;;;;;;;;;;26.30;93.40;;;;;;5122942;27;19911;-54
2022/06/28 09:37:35;;;;;;;;;;;26.40;90.70;;;;;;5087418;27;19912;-56
2022/06/28 09:40:19;;;;;;;;;;;26.50;87.00;;;;;;5123250;27;19915;-54
2022/06/28 09:43:07;;;;;;;;;;;26.90;84.40;;;;;;5124557;27;19916;-56
2022/06/28 09:45:50;;;;;;;;;;;27.30;81.80;;;;;;5122234;27;19912;-54
2022/06/28 09:48:32;;;;;;;;;;;27.40;76.80;;;;;;5113810;27;20392;-54
2022/06/28 09:51:13;;;;;;;;;;;27.80;74.80;;;;;;5092195;27;19917;-55
2022/06/28 09:53:53;;;;;;;;;;;28.00;72.40;;;;;;5120841;27;19911;-55
2022/06/28 09:56:35;;;;;;;;;;;27.80;69.80;;;;;;5095437;27;19913;-54
2022/06/28 09:59:15;;;;;;;;;;;27.80;72.00;;;;;;5123348;27;19911;-55
2022/06/28 10:01:58;;;;;;;;;;;27.80;67.90;;;;;;5124184;27;19919;-53
2022/06/28 10:04:38;;;;;;;;;;;28.00;70.10;;;;;;5119861;27;19912;-53
2022/06/28 10:07:18;;;;;;;;;;;28.00;68.30;;;;;;5089150;27;19917;-54
2022/06/28 10:09:59;;;;;;;;;;;27.90;66.20;;;;;;5103436;27;19926;-53
2022/06/28 10:15:37;;;;;;;;;;;28.00;63.60;;;;;;5083590;28;20263;-53
2022/06/28 10:18:18;;;;;;;;;;;28.20;64.10;;;;;;5124296;27;19927;-55
2022/06/28 10:21:00;;;;;;;;;;;28.20;63.40;;;;;;5124013;27;19912;-53
2022/06/28 10:23:42;;;;;;;;;;;28.00;65.10;;;;;;5104180;27;19912;-53
2022/06/28 10:26:23;;;;;;;;;;;28.10;66.20;;;;;;5097934;27;20345;-55
2022/06/28 10:29:04;;;;;;;;;;;28.60;66.70;;;;;;5083666;28;19920;-53
2022/06/28 10:31:45;;;;;;;;;;;28.80;61.20;;;;;;5103043;27;20393;-53
2022/06/28 10:34:45;;;;;;;;;;;28.80;59.40;;;;;;5103725;27;19930;-54
2022/06/28 10:37:25;;;;;;;;;;;28.50;62.60;;;;;;5123567;27;19915;-53
2022/06/28 10:40:27;;;;;;;;;;;28.20;63.00;;;;;;5123936;27;19915;-55
2022/06/28 10:43:08;;;;;;;;;;;27.90;62.30;;;;;;5123906;27;19919;-54
2022/06/28 10:46:07;;;;;;;;;;;27.40;65.30;;;;;;5123513;27;20404;-53
2022/06/28 10:49:06;;;;;;;;;;;27.20;64.50;;;;;;5123956;27;19927;-55
2022/06/28 10:52:12;;;;;;;;;;;26.90;65.80;;;;;;5103271;27;19953;-55
2022/06/28 10:55:06;;;;;;;;;;;26.70;66.40;;;;;;5104114;27;20402;-54
2022/06/28 10:57:46;;;;;;;;;;;26.60;64.00;;;;;;5105985;27;19912;-55
2022/06/28 11:00:32;;;;;;;;;;;26.60;62.80;;;;;;5123802;27;20157;-55
2022/06/28 11:03:13;;;;;;;;;;;27.00;63.60;;;;;;5124299;27;19926;-56
2022/06/28 11:05:53;;;;;;;;;;;27.70;60.50;;;;;;5123665;27;20146;-54
2022/06/28 11:08:54;;;;;;;;;;;28.10;58.80;;;;;;5165899;27;19911;-54
2022/06/28 11:11:34;;;;;;;;;;;28.40;57.10;;;;;;5103701;27;19912;-54
2022/06/28 11:14:30;;;;;;;;;;;28.40;60.00;;;;;;5124908;27;19912;-53
2022/06/28 11:17:16;;;;;;;;;;;28.50;58.50;;;;;;5123747;27;19912;-54
2022/06/28 11:20:00;;;;;;;;;;;28.50;58.10;;;;;;5100398;27;20442;-53
2022/06/28 11:22:42;;;;;;;;;;;28.80;57.80;;;;;;5143900;27;19911;-54
2022/06/28 11:25:23;;;;;;;;;;;29.30;57.80;;;;;;5124902;27;19916;-54
2022/06/28 11:28:04;;;;;;;;;;;30.20;54.80;;;;;;5145215;27;19912;-55
2022/06/28 11:30:45;;;;;;;;;;;30.60;49.00;;;;;;5124515;27;20319;-53
2022/06/28 11:33:32;;;;;;;;;;;30.50;48.90;;;;;;5125002;27;20381;-54
2022/06/28 11:36:22;;;;;;;;;;;30.90;47.70;;;;;;5119742;27;20575;-54
2022/06/28 11:39:03;;;;;;;;;;;30.80;46.50;;;;;;5121582;27;19916;-53
2022/06/28 11:41:47;;;;;;;;;;;30.40;44.10;;;;;;5152033;27;19911;-55
2022/06/28 11:44:27;;;;;;;;;;;30.10;45.20;;;;;;5124607;27;19912;-53
2022/06/28 11:47:08;;;;;;;;;;;30.00;46.60;;;;;;5112420;27;19918;-53
2022/06/28 11:49:52;;;;;;;;;;;30.00;48.90;;;;;;5104009;27;19969;-54
2022/06/28 11:52:33;;;;;;;;;;;29.80;48.60;;;;;;5104068;27;19912;-54
2022/06/28 11:55:12;;;;;;;;;;;29.50;50.00;;;;;;5123935;27;20230;-55
2022/06/28 11:58:06;;;;;;;;;;;29.40;48.70;;;;;;5085705;27;19954;-56
2022/06/28 12:01:07;;;;;;;;;;;29.50;49.30;;;;;;5123733;27;20555;-55
2022/06/28 12:03:58;;;;;;;;;;;29.80;47.30;;;;;;5103685;27;19926;-53
2022/06/28 12:06:40;;;;;;;;;;;29.70;47.50;;;;;;5123938;27;19915;-54
2022/06/28 12:09:20;;;;;;;;;;;29.50;46.80;;;;;;5125393;27;20628;-54
2022/06/28 12:12:00;;;;;;;;;;;29.30;48.00;;;;;;5124239;27;19912;-54
2022/06/28 12:14:39;;;;;;;;;;;29.50;48.80;;;;;;5124607;27;19915;-53
2022/06/28 12:17:19;;;;;;;;;;;29.80;49.20;;;;;;5089316;27;19926;-55
2022/06/28 12:20:07;;;;;;;;;;;30.00;47.70;;;;;;5124040;27;19916;-54
2022/06/28 12:22:56;;;;;;;;;;;29.80;47.20;;;;;;5103295;27;19930;-54
2022/06/28 12:25:36;;;;;;;;;;;29.40;48.00;;;;;;5123973;27;19911;-53
2022/06/28 12:28:16;;;;;;;;;;;29.60;49.10;;;;;;5124232;27;19912;-54
2022/06/28 12:30:56;;;;;;;;;;;29.60;49.20;;;;;;5123910;27;20293;-54
2022/06/28 12:33:36;;;;;;;;;;;29.80;48.90;;;;;;5124456;27;19911;-54
2022/06/28 12:36:15;;;;;;;;;;;29.80;47.20;;;;;;5123471;27;19911;-54
2022/06/28 12:38:55;;;;;;;;;;;29.60;47.10;;;;;;5124170;27;19915;-54
2022/06/28 12:41:35;;;;;;;;;;;29.30;46.30;;;;;;5124266;27;19916;-53
2022/06/28 12:44:15;;;;;;;;;;;29.20;47.70;;;;;;5125023;27;20344;-54
2022/06/28 12:46:55;;;;;;;;;;;29.40;48.00;;;;;;5123632;27;19912;-54
2022/06/28 12:49:35;;;;;;;;;;;29.70;46.90;;;;;;5178790;27;19911;-53
2022/06/28 12:52:14;;;;;;;;;;;29.80;49.10;;;;;;5103965;27;19946;-54
2022/06/28 12:54:54;;;;;;;;;;;29.70;46.00;;;;;;5104008;27;19926;-55
2022/06/28 12:57:34;;;;;;;;;;;30.00;45.20;;;;;;5067877;28;20338;-53
2022/06/28 13:00:14;;;;;;;;;;;30.20;46.00;;;;;;5103341;27;19916;-54
2022/06/28 13:02:55;;;;;;;;;;;30.00;48.20;;;;;;5144867;27;19916;-53
2022/06/28 13:05:35;;;;;;;;;;;29.60;48.20;;;;;;5083359;28;20320;-54
2022/06/28 13:08:15;;;;;;;;;;;29.20;47.40;;;;;;5123096;27;19912;-54
2022/06/28 13:10:58;;;;;;;;;;;29.00;47.70;;;;;;5124121;27;19919;-53
2022/06/28 13:13:38;;;;;;;;;;;29.10;47.80;;;;;;5124690;27;20373;-55
2022/06/28 13:16:18;;;;;;;;;;;29.00;48.40;;;;;;5119388;27;19912;-53
2022/06/28 13:18:58;;;;;;;;;;;28.90;48.30;;;;;;5103551;27;19916;-54
2022/06/28 13:21:37;;;;;;;;;;;28.70;48.00;;;;;;5103989;27;19916;-53
2022/06/28 13:24:17;;;;;;;;;;;28.50;48.40;;;;;;5124624;27;19917;-55
2022/06/28 13:26:57;;;;;;;;;;;28.70;47.70;;;;;;5144164;27;20445;-54
2022/06/28 13:29:37;;;;;;;;;;;29.30;47.50;;;;;;5124276;27;19911;-55
2022/06/28 13:32:17;;;;;;;;;;;29.70;46.80;;;;;;5124211;27;19912;-54
2022/06/28 13:34:56;;;;;;;;;;;30.70;47.30;;;;;;5124203;27;19912;-57
2022/06/28 13:37:36;;;;;;;;;;;31.40;44.90;;;;;;5143717;27;19911;-54
2022/06/28 13:40:16;;;;;;;;;;;31.00;45.00;;;;;;5123822;27;19912;-53
2022/06/28 13:42:56;;;;;;;;;;;30.00;46.80;;;;;;5103734;27;19916;-54
2022/06/28 13:45:36;;;;;;;;;;;29.50;46.90;;;;;;5103803;27;19930;-55
2022/06/28 13:48:16;;;;;;;;;;;29.30;48.50;;;;;;5124642;27;19920;-55
2022/06/28 13:50:55;;;;;;;;;;;29.40;48.90;;;;;;5124899;27;19912;-54
2022/06/28 13:53:36;;;;;;;;;;;29.30;47.90;;;;;;5125062;27;19912;-53
2022/06/28 13:56:17;;;;;;;;;;;29.20;49.90;;;;;;5119053;27;19916;-54
2022/06/28 13:58:58;;;;;;;;;;;29.00;48.20;;;;;;5124026;27;20336;-56
2022/06/28 14:01:38;;;;;;;;;;;29.10;48.00;;;;;;5123734;27;20402;-55
2022/06/28 14:04:18;;;;;;;;;;;28.90;48.60;;;;;;5124407;27;19926;-54
2022/06/28 14:06:58;;;;;;;;;;;29.20;48.80;;;;;;5092745;27;20173;-54
2022/06/28 14:09:37;;;;;;;;;;;29.50;48.00;;;;;;5124457;27;19915;-55
2022/06/28 14:12:17;;;;;;;;;;;29.50;47.60;;;;;;5104164;27;19920;-54
2022/06/28 14:14:57;;;;;;;;;;;29.40;47.50;;;;;;5124230;27;20383;-54
2022/06/28 14:17:37;;;;;;;;;;;29.40;46.90;;;;;;5087349;27;19912;-53
2022/06/28 14:20:17;;;;;;;;;;;29.50;48.70;;;;;;5124259;27;19911;-56
2022/06/28 14:22:57;;;;;;;;;;;29.60;47.20;;;;;;5104571;27;19912;-53
2022/06/28 14:25:36;;;;;;;;;;;29.60;47.80;;;;;;5104215;27;19962;-53
2022/06/28 14:28:16;;;;;;;;;;;29.50;48.10;;;;;;5104066;27;20304;-54
2022/06/28 14:30:56;;;;;;;;;;;29.40;49.30;;;;;;5124086;27;20409;-55
2022/06/28 14:33:36;;;;;;;;;;;29.10;50.00;;;;;;5103857;27;19912;-54
2022/06/28 14:36:16;;;;;;;;;;;28.70;50.20;;;;;;5116908;27;19912;-56
2022/06/28 14:38:56;;;;;;;;;;;28.30;50.20;;;;;;5123312;27;19911;-54
2022/06/28 14:41:37;;;;;;;;;;;28.30;51.10;;;;;;5103297;27;19912;-54
2022/06/28 14:44:17;;;;;;;;;;;28.60;51.00;;;;;;5124166;27;19916;-53
2022/06/28 14:46:57;;;;;;;;;;;29.20;51.00;;;;;;5092808;27;19912;-55
2022/06/28 14:49:36;;;;;;;;;;;29.80;48.00;;;;;;5124698;27;20107;-54
2022/06/28 14:52:19;;;;;;;;;;;29.50;47.30;;;;;;5115961;27;19918;-53
2022/06/28 14:55:00;;;;;;;;;;;29.40;48.70;;;;;;5124430;27;20185;-53
2022/06/28 14:57:39;;;;;;;;;;;29.50;49.10;;;;;;5086662;27;20267;-55
2022/06/28 15:00:20;;;;;;;;;;;29.60;48.60;;;;;;5104129;27;19926;-54
2022/06/28 15:03:01;;;;;;;;;;;29.50;47.80;;;;;;5124014;27;19916;-53
2022/06/28 15:05:42;;;;;;;;;;;29.30;48.70;;;;;;5124210;27;19911;-54
2022/06/28 15:08:22;;;;;;;;;;;29.20;50.00;;;;;;5103536;27;19912;-55
2022/06/28 15:11:02;;;;;;;;;;;29.30;50.20;;;;;;5123810;27;19916;-54
2022/06/28 15:13:42;;;;;;;;;;;29.00;50.20;;;;;;5103590;27;19919;-55
2022/06/28 15:16:21;;;;;;;;;;;29.00;51.00;;;;;;5123753;27;20401;-55
2022/06/28 15:19:01;;;;;;;;;;;29.30;50.50;;;;;;5123635;27;19916;-56
2022/06/28 15:30:53;;;;;;;;;;;29.60;48.40;;;;;;5124140;27;20208;-54
2022/06/28 15:33:34;;;;;;;;;;;29.20;49.60;;;;;;5124312;27;19911;-56
2022/06/28 15:36:14;;;;;;;;;;;29.00;50.40;;;;;;5099181;27;19916;-56
2022/06/28 15:38:53;;;;;;;;;;;29.00;51.10;;;;;;5124419;27;19912;-54
2022/06/28 15:41:33;;;;;;;;;;;30.20;49.50;;;;;;5124182;27;20037;-54
2022/06/28 15:44:13;;;;;;;;;;;30.70;48.70;;;;;;5144627;27;19915;-54
2022/06/28 15:46:53;;;;;;;;;;;30.90;47.30;;;;;;5113983;27;19916;-54
2022/06/28 15:49:33;;;;;;;;;;;30.50;47.60;;;;;;5103955;27;19916;-55
2022/06/28 15:52:13;;;;;;;;;;;29.80;48.10;;;;;;5125096;27;19916;-56
2022/06/28 15:54:52;;;;;;;;;;;29.70;48.80;;;;;;5104464;27;19962;-54
2022/06/28 15:57:32;;;;;;;;;;;30.30;47.60;;;;;;5108523;27;19916;-54
2022/06/28 16:00:14;;;;;;;;;;;30.50;47.10;;;;;;5103517;27;19916;-55
2022/06/28 16:02:58;;;;;;;;;;;31.20;46.00;;;;;;5124228;27;19923;-55
2022/06/28 16:05:38;;;;;;;;;;;30.90;46.60;;;;;;5103081;27;20394;-55
2022/06/28 16:08:18;;;;;;;;;;;30.10;48.30;;;;;;5122494;27;19915;-54